createdAt,value
2018-01-10T00:00:51.200Z,4.10
2018-01-10T00:03:18.983Z,4.10
2018-01-10T00:05:46.711Z,4.20
2018-01-10T00:08:14.445Z,4.20
2018-01-10T00:10:42.999Z,4.20
2018-01-10T00:13:10.731Z,4.20
2018-01-10T00:15:38.460Z,4.20
2018-01-10T00:18:07.010Z,4.20
2018-01-10T00:20:34.738Z,4.20
2018-01-10T00:23:02.500Z,4.30
2018-01-10T00:25:30.284Z,4.20
2018-01-10T00:27:58.007Z,4.40
2018-01-10T00:30:25.735Z,4.40
2018-01-10T00:32:54.289Z,4.50
2018-01-10T00:35:22.015Z,4.50
2018-01-10T00:37:49.772Z,4.50
2018-01-10T00:40:17.562Z,4.50
2018-01-10T00:42:45.295Z,4.50
2018-01-10T00:45:13.071Z,4.50
2018-01-10T00:47:40.850Z,4.50
2018-01-10T00:50:08.585Z,4.60
2018-01-10T00:52:36.318Z,4.60
2018-01-10T00:55:04.875Z,4.60
2018-01-10T00:57:32.609Z,4.50
2018-01-10T01:00:00.345Z,4.50
2018-01-10T01:02:28.147Z,4.40
2018-01-10T01:04:55.876Z,4.40
2018-01-10T01:07:23.602Z,4.40
2018-01-10T01:09:52.177Z,4.30
2018-01-10T01:12:20.671Z,4.30
2018-01-10T01:14:48.419Z,4.30
2018-01-10T01:17:16.971Z,4.40
2018-01-10T01:19:44.702Z,4.40
2018-01-10T01:22:12.443Z,4.50
2018-01-10T01:24:40.232Z,4.50
2018-01-10T01:27:07.959Z,4.60
2018-01-10T01:29:35.687Z,4.60
2018-01-10T01:32:03.467Z,4.60
2018-01-10T01:34:31.996Z,4.60
2018-01-10T01:36:59.722Z,4.60
2018-01-10T01:39:27.507Z,4.60
2018-01-10T01:41:55.233Z,4.60
2018-01-10T01:44:23.731Z,4.50
2018-01-10T01:46:51.512Z,4.60
2018-01-10T01:49:19.240Z,4.60
2018-01-10T01:51:46.968Z,4.60
2018-01-10T01:54:14.758Z,4.50
2018-01-10T01:56:43.255Z,4.60
2018-01-10T01:59:11.000Z,4.50
2018-01-10T02:01:39.579Z,4.50
2018-01-10T02:04:08.083Z,4.50
2018-01-10T02:06:35.811Z,4.50
2018-01-10T02:09:04.603Z,4.40
2018-01-10T02:11:33.107Z,4.40
2018-01-10T02:14:00.831Z,4.30
2018-01-10T02:16:29.380Z,4.30
2018-01-10T02:18:57.111Z,4.30
2018-01-10T02:21:24.837Z,4.30
2018-01-10T02:23:53.389Z,4.20
2018-01-10T02:26:21.111Z,4.20
2018-01-10T02:28:48.834Z,4.20
2018-01-10T02:31:17.392Z,4.10
2018-01-10T02:33:45.119Z,4.10
2018-01-10T02:36:12.844Z,4.10
2018-01-10T02:38:41.404Z,4.00
2018-01-10T02:41:10.028Z,4.00
2018-01-10T02:43:37.755Z,4.00
2018-01-10T02:46:05.543Z,4.00
2018-01-10T02:48:33.267Z,4.00
2018-01-10T02:51:00.999Z,3.90
2018-01-10T02:53:28.788Z,3.90
2018-01-10T02:55:56.519Z,3.90
2018-01-10T02:58:24.243Z,3.90
2018-01-10T03:00:52.794Z,3.90
2018-01-10T03:03:20.532Z,3.90
2018-01-10T03:05:48.264Z,3.90
2018-01-10T03:08:16.047Z,3.90
2018-01-10T03:10:43.792Z,3.90
2018-01-10T03:13:11.524Z,3.90
2018-01-10T03:15:40.075Z,3.90
2018-01-10T03:18:07.814Z,3.90
2018-01-10T03:20:35.551Z,3.90
2018-01-10T03:23:03.340Z,3.90
2018-01-10T03:25:31.084Z,3.90
2018-01-10T03:27:58.816Z,3.90
2018-01-10T03:30:26.610Z,4.00
2018-01-10T03:32:54.340Z,3.90
2018-01-10T03:35:22.831Z,4.00
2018-01-10T03:37:50.630Z,4.00
2018-01-10T03:40:18.359Z,4.00
2018-01-10T03:42:46.088Z,4.00
2018-01-10T03:45:14.644Z,4.00
2018-01-10T03:47:42.371Z,3.90
2018-01-10T03:50:10.099Z,4.00
2018-01-10T03:52:38.686Z,4.00
2018-01-10T03:55:07.212Z,4.00
2018-01-10T03:57:34.944Z,4.00
2018-01-10T04:00:02.728Z,4.10
2018-01-10T04:02:30.459Z,4.00
2018-01-10T04:04:58.188Z,4.00
2018-01-10T04:07:25.990Z,4.00
2018-01-10T04:09:53.724Z,4.00
2018-01-10T04:12:22.220Z,4.10
2018-01-10T04:14:50.008Z,4.00
2018-01-10T04:17:17.736Z,4.10
2018-01-10T04:19:45.459Z,4.20
2018-01-10T04:22:13.243Z,4.20
2018-01-10T04:24:41.755Z,4.20
2018-01-10T04:27:09.488Z,4.10
2018-01-10T04:29:38.034Z,4.10
2018-01-10T04:32:05.767Z,4.10
2018-01-10T04:34:33.497Z,4.10
2018-01-10T04:37:02.051Z,4.10
2018-01-10T04:39:29.774Z,4.10
2018-01-10T04:41:57.498Z,4.20
2018-01-10T04:44:26.043Z,4.30
2018-01-10T04:46:53.776Z,4.30
2018-01-10T04:49:21.504Z,4.40
2018-01-10T04:51:49.311Z,4.40
2018-01-10T04:54:17.048Z,4.40
2018-01-10T04:56:44.778Z,4.40
2018-01-10T04:59:13.331Z,4.50
2018-01-10T05:01:41.055Z,4.40
2018-01-10T05:04:08.782Z,4.50
2018-01-10T05:06:37.335Z,4.60
2018-01-10T05:09:05.078Z,4.60
2018-01-10T05:11:32.804Z,4.70
2018-01-10T05:14:00.596Z,4.70
2018-01-10T05:16:28.331Z,4.70
2018-01-10T05:18:56.070Z,4.70
2018-01-10T05:21:24.618Z,4.70
2018-01-10T05:23:52.343Z,4.70
2018-01-10T05:26:20.081Z,4.80
2018-01-10T05:28:47.866Z,4.80
2018-01-10T05:31:15.623Z,4.80
2018-01-10T05:33:43.351Z,4.90
2018-01-10T05:36:11.894Z,4.90
2018-01-10T05:38:40.392Z,4.90
2018-01-10T05:41:08.120Z,4.90
2018-01-10T05:43:35.899Z,4.90
2018-01-10T05:46:03.644Z,4.90
2018-01-10T05:48:32.150Z,5.00
2018-01-10T05:50:59.935Z,4.90
2018-01-10T05:53:28.439Z,5.00
2018-01-10T05:55:56.175Z,5.00
2018-01-10T05:58:24.735Z,5.00
2018-01-10T06:00:52.472Z,4.90
2018-01-10T06:03:20.207Z,5.00
2018-01-10T06:05:48.032Z,4.90
2018-01-10T06:08:16.533Z,5.00
2018-01-10T06:10:44.259Z,5.00
2018-01-10T06:13:12.047Z,5.00
2018-01-10T06:15:40.559Z,5.00
2018-01-10T06:18:08.294Z,5.00
2018-01-10T06:20:36.838Z,5.10
2018-01-10T06:23:04.566Z,5.00
2018-01-10T06:25:32.321Z,5.00
2018-01-10T06:28:00.112Z,4.90
2018-01-10T06:30:27.838Z,4.90
2018-01-10T06:32:55.569Z,5.00
2018-01-10T06:35:23.376Z,4.90
2018-01-10T06:37:51.107Z,4.90
2018-01-10T06:40:18.881Z,4.90
2018-01-10T06:42:46.664Z,4.90
2018-01-10T06:45:14.391Z,4.90
2018-01-10T06:47:42.126Z,4.90
2018-01-10T06:50:10.682Z,4.90
2018-01-10T06:52:38.408Z,4.90
2018-01-10T06:55:06.145Z,4.90
2018-01-10T06:57:34.696Z,5.00
2018-01-10T07:00:02.430Z,5.00
2018-01-10T07:02:30.155Z,5.00
2018-01-10T07:04:58.703Z,5.00
2018-01-10T07:07:26.435Z,5.00
2018-01-10T07:09:54.174Z,5.10
2018-01-10T07:12:21.952Z,5.10
2018-01-10T07:14:49.675Z,5.10
2018-01-10T07:17:18.176Z,5.10
2018-01-10T07:19:45.969Z,5.10
2018-01-10T07:22:13.697Z,5.10
2018-01-10T07:24:41.427Z,5.10
2018-01-10T07:27:09.984Z,5.00
2018-01-10T07:29:37.738Z,5.00
2018-01-10T07:32:05.479Z,5.00
2018-01-10T07:34:33.267Z,5.10
2018-01-10T07:37:00.997Z,5.10
2018-01-10T07:39:28.732Z,5.20
2018-01-10T07:41:56.515Z,5.20
2018-01-10T07:44:24.244Z,5.20
2018-01-10T07:46:52.739Z,5.30
2018-01-10T07:49:20.522Z,5.20
2018-01-10T07:51:48.250Z,5.30
2018-01-10T07:54:16.738Z,5.30
2018-01-10T07:56:44.523Z,5.30
2018-01-10T07:59:12.252Z,5.40
2018-01-10T08:01:40.751Z,5.40
2018-01-10T08:04:08.548Z,5.40
2018-01-10T08:06:36.276Z,5.40
2018-01-10T08:09:04.035Z,5.40
2018-01-10T08:11:31.821Z,5.40
2018-01-10T08:13:59.561Z,5.30
2018-01-10T08:16:27.300Z,5.40
2018-01-10T08:18:55.888Z,5.60
2018-01-10T08:21:23.614Z,5.60
2018-01-10T08:23:51.348Z,5.70
2018-01-10T08:26:19.132Z,5.70
2018-01-10T08:28:46.860Z,5.80
2018-01-10T08:31:14.592Z,5.80
2018-01-10T08:33:43.141Z,5.80
2018-01-10T08:36:10.872Z,5.70
2018-01-10T08:38:38.599Z,5.80
2018-01-10T08:41:06.382Z,5.90
2018-01-10T08:43:34.119Z,5.90
2018-01-10T08:46:01.847Z,6.00
2018-01-10T08:48:29.626Z,6.00
2018-01-10T08:50:58.177Z,6.10
2018-01-10T08:53:25.906Z,6.10
2018-01-10T08:55:53.702Z,6.20
2018-01-10T08:58:21.430Z,6.20
2018-01-10T09:00:49.165Z,6.20
2018-01-10T09:03:17.714Z,6.20
2018-01-10T09:05:45.476Z,6.20
2018-01-10T09:08:13.210Z,6.30
2018-01-10T09:10:40.991Z,6.40
2018-01-10T09:13:08.716Z,6.30
2018-01-10T09:15:36.439Z,6.30
2018-01-10T09:18:04.995Z,6.40
2018-01-10T09:20:32.721Z,6.40
2018-01-10T09:23:00.468Z,6.40
2018-01-10T09:25:28.264Z,6.40
2018-01-10T09:27:55.994Z,6.40
2018-01-10T09:30:23.728Z,6.40
2018-01-10T09:32:52.276Z,6.50
2018-01-10T09:35:20.007Z,6.50
2018-01-10T09:37:47.738Z,6.50
2018-01-10T09:40:16.283Z,6.50
2018-01-10T09:42:44.015Z,6.50
2018-01-10T09:45:11.740Z,6.50
2018-01-10T09:47:40.293Z,6.50
2018-01-10T09:50:08.026Z,6.40
2018-01-10T09:52:35.766Z,6.50
2018-01-10T09:55:03.556Z,6.40
2018-01-10T09:57:31.295Z,6.50
2018-01-10T09:59:59.052Z,6.50
2018-01-10T10:02:26.846Z,6.50
2018-01-10T10:04:54.590Z,6.60
2018-01-10T10:07:22.324Z,6.60
2018-01-10T10:09:50.103Z,6.60
2018-01-10T10:12:17.829Z,6.50
2018-01-10T10:14:46.330Z,6.60
2018-01-10T10:17:14.116Z,6.50
2018-01-10T10:19:41.842Z,6.60
2018-01-10T10:22:09.572Z,6.60
2018-01-10T10:24:37.353Z,6.70
2018-01-10T10:27:05.848Z,6.70
2018-01-10T10:29:33.579Z,6.70
2018-01-10T10:32:01.367Z,6.70
2018-01-10T10:34:29.099Z,6.60
2018-01-10T10:36:56.822Z,6.60
2018-01-10T10:39:24.612Z,6.50
2018-01-10T10:41:52.343Z,6.50
2018-01-10T10:44:20.066Z,6.40
2018-01-10T10:46:48.618Z,6.30
2018-01-10T10:49:16.347Z,6.30
2018-01-10T10:51:44.073Z,6.30
2018-01-10T10:54:12.632Z,6.40
2018-01-10T10:56:40.394Z,6.40
2018-01-10T10:59:08.131Z,6.50
2018-01-10T11:01:35.950Z,6.50
2018-01-10T11:04:03.680Z,6.60
2018-01-10T11:06:31.407Z,6.50
2018-01-10T11:08:59.193Z,6.50
2018-01-10T11:11:27.698Z,6.50
2018-01-10T11:13:56.194Z,6.50
2018-01-10T11:16:23.980Z,6.50
2018-01-10T11:18:51.707Z,6.50
2018-01-10T11:21:19.442Z,6.50
2018-01-10T11:23:48.010Z,6.50
2018-01-10T11:26:15.744Z,6.50
2018-01-10T11:28:43.479Z,6.60
2018-01-10T11:31:11.290Z,6.60
2018-01-10T11:33:39.015Z,6.70
2018-01-10T11:36:06.744Z,6.70
2018-01-10T11:38:35.307Z,6.80
2018-01-10T11:41:03.031Z,6.80
2018-01-10T11:43:30.771Z,6.80
2018-01-10T11:45:58.563Z,6.80
2018-01-10T11:48:26.302Z,6.80
2018-01-10T11:50:54.030Z,6.90
2018-01-10T11:53:22.580Z,6.80
2018-01-10T11:55:50.334Z,6.80
2018-01-10T11:58:18.061Z,6.80
2018-01-10T12:00:45.843Z,6.80
2018-01-10T12:03:13.576Z,6.80
2018-01-10T12:05:41.303Z,6.80
2018-01-10T12:08:09.087Z,6.80
2018-01-10T12:10:37.595Z,6.90
2018-01-10T12:13:05.328Z,6.90
2018-01-10T12:15:33.112Z,7.00
2018-01-10T12:18:00.838Z,6.90
2018-01-10T12:20:29.354Z,6.90
2018-01-10T12:22:57.151Z,6.90
2018-01-10T12:25:24.884Z,7.00
2018-01-10T12:27:52.606Z,7.00
2018-01-10T12:30:21.151Z,7.00
2018-01-10T12:32:48.874Z,7.00
2018-01-10T12:35:16.604Z,7.10
2018-01-10T12:37:45.151Z,7.10
2018-01-10T12:40:12.883Z,7.10
2018-01-10T12:42:40.612Z,7.10
2018-01-10T12:45:09.164Z,7.10
2018-01-10T12:47:36.894Z,7.00
2018-01-10T12:50:04.656Z,7.00
2018-01-10T12:52:32.447Z,7.10
2018-01-10T12:55:00.180Z,7.10
2018-01-10T12:57:27.907Z,7.20
2018-01-10T12:59:55.686Z,7.20
2018-01-10T13:02:23.415Z,7.20
2018-01-10T13:04:51.912Z,7.10
2018-01-10T13:07:19.691Z,7.10
2018-01-10T13:09:47.424Z,7.20
2018-01-10T13:12:15.958Z,7.20
2018-01-10T13:14:43.757Z,7.20
2018-01-10T13:17:12.253Z,7.20
2018-01-10T13:19:39.989Z,7.20
2018-01-10T13:22:08.542Z,7.30
2018-01-10T13:24:36.279Z,7.20
2018-01-10T13:27:04.031Z,7.30
2018-01-10T13:29:31.824Z,7.30
2018-01-10T13:32:00.363Z,7.20
2018-01-10T13:34:28.091Z,7.20
2018-01-10T13:36:55.879Z,7.20
2018-01-10T13:39:23.612Z,7.20
2018-01-10T13:41:51.341Z,7.20
2018-01-10T13:44:19.138Z,7.20
2018-01-10T13:46:46.866Z,7.20
2018-01-10T13:49:14.605Z,7.20
2018-01-10T13:51:42.403Z,7.20
2018-01-10T13:54:10.141Z,7.30
2018-01-10T13:56:37.880Z,7.30
2018-01-10T13:59:05.666Z,7.20
2018-01-10T14:01:33.396Z,7.20
2018-01-10T14:04:01.128Z,7.20
2018-01-10T14:06:28.918Z,7.10
2018-01-10T14:08:56.643Z,7.10
2018-01-10T14:11:24.374Z,7.10
2018-01-10T14:13:52.169Z,7.10
2018-01-10T14:16:19.896Z,7.10
2018-01-10T14:18:47.623Z,7.00
2018-01-10T14:21:15.408Z,7.00
2018-01-10T14:23:43.139Z,6.90
2018-01-10T14:26:11.632Z,6.80
2018-01-10T14:28:39.417Z,6.80
2018-01-10T14:31:07.144Z,6.80
2018-01-10T14:33:34.895Z,6.70
2018-01-10T14:36:03.460Z,6.60
2018-01-10T14:38:31.195Z,6.60
2018-01-10T14:40:58.928Z,6.60
2018-01-10T14:43:26.708Z,6.60
2018-01-10T14:45:54.436Z,6.50
2018-01-10T14:48:22.183Z,6.50
2018-01-10T14:50:50.734Z,6.40
2018-01-10T14:53:18.473Z,6.40
2018-01-10T14:55:46.214Z,6.50
2018-01-10T14:58:14.009Z,6.40
2018-01-10T15:00:41.749Z,6.40
2018-01-10T15:03:09.543Z,6.40
2018-01-10T15:05:37.335Z,6.40
2018-01-10T15:08:05.855Z,6.40
2018-01-10T15:10:33.599Z,6.40
2018-01-10T15:13:01.384Z,6.40
2018-01-10T15:15:29.883Z,6.40
2018-01-10T15:17:57.608Z,6.40
2018-01-10T15:20:25.405Z,6.40
2018-01-10T15:22:53.905Z,6.40
2018-01-10T15:25:21.635Z,6.30
2018-01-10T15:27:50.190Z,6.30
2018-01-10T15:30:17.947Z,6.30
2018-01-10T15:32:45.684Z,6.30
2018-01-10T15:35:14.250Z,6.30
2018-01-10T15:37:41.985Z,6.30
2018-01-10T15:40:09.726Z,6.30
2018-01-10T15:42:37.538Z,6.40
2018-01-10T15:45:06.044Z,6.30
2018-01-10T15:47:33.783Z,6.30
2018-01-10T15:50:02.331Z,6.30
2018-01-10T15:52:30.056Z,6.30
2018-01-10T15:54:57.812Z,6.20
2018-01-10T15:57:25.665Z,6.30
2018-01-10T15:59:53.391Z,6.30
2018-01-10T16:02:21.120Z,6.30
2018-01-10T16:04:48.909Z,6.30
2018-01-10T16:07:16.644Z,6.30
2018-01-10T16:09:44.387Z,6.30
2018-01-10T16:12:12.252Z,6.30
2018-01-10T16:14:39.978Z,6.30
2018-01-10T16:17:08.480Z,6.30
2018-01-10T16:19:36.272Z,6.30
2018-01-10T16:22:04.004Z,6.20
2018-01-10T16:24:31.750Z,6.30
2018-01-10T16:27:00.295Z,6.20
2018-01-10T16:29:28.044Z,6.20
2018-01-10T16:31:55.778Z,6.20
2018-01-10T16:34:23.566Z,6.20
2018-01-10T16:36:52.060Z,6.20
2018-01-10T16:39:19.783Z,6.20
2018-01-10T16:41:47.563Z,6.20
2018-01-10T16:44:16.068Z,6.20
2018-01-10T16:46:43.798Z,6.20
2018-01-10T16:49:11.594Z,6.20
2018-01-10T16:51:39.327Z,6.20
2018-01-10T16:54:07.831Z,6.20
2018-01-10T16:56:35.616Z,6.10
2018-01-10T16:59:04.112Z,6.10
2018-01-10T17:01:31.843Z,6.10
2018-01-10T17:04:00.408Z,6.10
2018-01-10T17:06:28.151Z,6.00
2018-01-10T17:08:55.883Z,6.10
2018-01-10T17:11:23.685Z,6.10
2018-01-10T17:13:51.442Z,6.10
2018-01-10T17:16:19.183Z,6.10
2018-01-10T17:18:46.968Z,6.10
2018-01-10T17:21:14.696Z,6.10
2018-01-10T17:23:43.211Z,6.10
2018-01-10T17:26:10.993Z,6.10
2018-01-10T17:28:38.723Z,6.10
2018-01-10T17:31:06.456Z,6.00
2018-01-10T17:33:34.239Z,6.00
2018-01-10T17:36:02.004Z,6.00
2018-01-10T17:38:29.734Z,6.00
2018-01-10T17:40:57.517Z,6.00
2018-01-10T17:43:25.260Z,6.10
2018-01-10T17:45:52.990Z,6.00
2018-01-10T17:48:20.775Z,5.90
2018-01-10T17:50:48.507Z,5.90
2018-01-10T17:53:16.238Z,5.90
2018-01-10T17:55:44.024Z,5.90
2018-01-10T17:58:13.036Z,5.80
2018-01-10T18:00:40.800Z,5.80
2018-01-10T18:03:09.395Z,5.70
2018-01-10T18:05:37.136Z,5.70
2018-01-10T18:08:05.627Z,5.70
2018-01-10T18:10:34.189Z,5.70
2018-01-10T18:13:01.926Z,5.70
2018-01-10T18:15:29.655Z,5.70
2018-01-10T18:17:57.442Z,5.80
2018-01-10T18:20:25.179Z,5.70
2018-01-10T18:22:52.917Z,5.60
2018-01-10T18:25:21.466Z,5.50
2018-01-10T18:27:49.331Z,5.50
2018-01-10T18:30:17.061Z,5.50
2018-01-10T18:32:44.848Z,5.50
2018-01-10T18:35:12.584Z,5.50
2018-01-10T18:37:40.311Z,5.50
2018-01-10T18:40:08.123Z,5.50
2018-01-10T18:42:35.905Z,5.40
2018-01-10T18:45:03.695Z,5.40
2018-01-10T18:47:31.483Z,5.40
2018-01-10T18:49:59.228Z,5.40
2018-01-10T18:52:26.969Z,5.30
2018-01-10T18:54:55.534Z,5.20
2018-01-10T18:57:23.277Z,5.20
2018-01-10T18:59:51.018Z,5.20
2018-01-10T19:02:18.816Z,5.20
2018-01-10T19:04:46.559Z,5.20
2018-01-10T19:07:14.316Z,5.30
2018-01-10T19:09:42.291Z,5.30
2018-01-10T19:12:10.052Z,5.30
2018-01-10T19:14:37.815Z,5.20
2018-01-10T19:17:05.628Z,5.20
2018-01-10T19:19:33.402Z,5.20
2018-01-10T19:22:01.142Z,5.20
2018-01-10T19:24:29.705Z,5.20
2018-01-10T19:26:58.215Z,5.20
2018-01-10T19:29:25.968Z,5.20
2018-01-10T19:31:53.772Z,5.20
2018-01-10T19:34:21.518Z,5.20
2018-01-10T19:36:49.278Z,5.10
2018-01-10T19:39:17.086Z,5.10
2018-01-10T19:41:44.852Z,5.20
2018-01-10T19:44:13.368Z,5.20
2018-01-10T19:46:41.178Z,5.20
2018-01-10T19:49:08.939Z,5.20
2018-01-10T19:51:37.206Z,5.30
2018-01-10T19:54:05.023Z,5.20
2018-01-10T19:56:32.802Z,5.20
2018-01-10T19:59:00.584Z,5.20
2018-01-10T20:01:28.411Z,5.30
2018-01-10T20:03:56.177Z,5.20
2018-01-10T20:06:24.287Z,5.20
2018-01-10T20:08:52.102Z,5.20
2018-01-10T20:11:19.942Z,5.30
2018-01-10T20:13:48.692Z,5.20
2018-01-10T20:16:16.626Z,5.20
2018-01-10T20:18:44.417Z,5.20
2018-01-10T20:21:12.905Z,5.10
2018-01-10T20:23:40.787Z,5.10
2018-01-10T20:26:08.590Z,5.10
2018-01-10T20:28:36.370Z,5.20
2018-01-10T20:31:04.188Z,5.30
2018-01-10T20:33:32.716Z,5.30
2018-01-10T20:36:00.485Z,5.30
2018-01-10T20:38:29.119Z,5.40
2018-01-10T20:40:57.640Z,5.40
2018-01-10T20:43:25.417Z,5.50
2018-01-10T20:45:53.239Z,5.40
2018-01-10T20:48:20.995Z,5.40
2018-01-10T20:50:48.774Z,5.50
2018-01-10T20:53:16.711Z,5.50
2018-01-10T20:55:45.244Z,5.50
2018-01-10T20:58:13.000Z,5.50
2018-01-10T21:00:40.842Z,5.50
2018-01-10T21:03:08.617Z,5.50
2018-01-10T21:05:36.555Z,5.50
2018-01-10T21:08:04.390Z,5.50
2018-01-10T21:10:32.154Z,5.50
2018-01-10T21:12:59.914Z,5.50
2018-01-10T21:15:27.739Z,5.50
2018-01-10T21:17:55.607Z,5.50
2018-01-10T21:20:23.388Z,5.50
2018-01-10T21:22:51.205Z,5.50
2018-01-10T21:25:18.964Z,5.50
2018-01-10T21:27:46.724Z,5.40
2018-01-10T21:30:14.542Z,5.50
2018-01-10T21:32:42.396Z,5.40
2018-01-10T21:35:10.135Z,5.40
2018-01-10T21:37:37.930Z,5.40
2018-01-10T21:40:05.702Z,5.40
2018-01-10T21:42:33.447Z,5.40
2018-01-10T21:45:02.008Z,5.40
2018-01-10T21:47:29.740Z,5.40
2018-01-10T21:49:57.468Z,5.40
2018-01-10T21:52:25.284Z,5.40
2018-01-10T21:54:53.018Z,5.40
2018-01-10T21:57:21.516Z,5.40
2018-01-10T21:59:49.310Z,5.40
2018-01-10T22:02:17.073Z,5.40
2018-01-10T22:04:44.828Z,5.40
2018-01-10T22:07:12.611Z,5.40
2018-01-10T22:09:40.345Z,5.40
2018-01-10T22:12:08.079Z,5.40
2018-01-10T22:14:36.001Z,5.40
2018-01-10T22:17:03.727Z,5.40
2018-01-10T22:19:31.446Z,5.40
2018-01-10T22:21:59.990Z,5.40
2018-01-10T22:24:27.716Z,5.40
2018-01-10T22:26:55.443Z,5.40
2018-01-10T22:29:24.000Z,5.40
2018-01-10T22:31:51.781Z,5.40
2018-01-10T22:34:20.277Z,5.40
2018-01-10T22:36:48.063Z,5.30
2018-01-10T22:39:15.791Z,5.30
2018-01-10T22:41:43.531Z,5.30
2018-01-10T22:44:11.327Z,5.30
2018-01-10T22:46:39.058Z,5.30
2018-01-10T22:49:06.797Z,5.40
2018-01-10T22:51:34.583Z,5.30
2018-01-10T22:54:03.105Z,5.20
2018-01-10T22:56:30.843Z,5.20
2018-01-10T22:58:59.399Z,5.10
2018-01-10T23:01:27.144Z,5.10
2018-01-10T23:03:54.876Z,5.10
2018-01-10T23:06:22.660Z,5.10
2018-01-10T23:08:50.406Z,5.10
2018-01-10T23:11:18.134Z,5.10
2018-01-10T23:13:46.679Z,5.00
2018-01-10T23:16:14.408Z,5.00
2018-01-10T23:18:42.139Z,5.00
2018-01-10T23:21:09.930Z,4.90
2018-01-10T23:23:37.660Z,4.90
2018-01-10T23:26:05.395Z,4.80
2018-01-10T23:28:33.180Z,4.80
2018-01-10T23:31:01.683Z,4.80
2018-01-10T23:33:29.406Z,4.80
2018-01-10T23:35:57.952Z,4.70
2018-01-10T23:38:25.679Z,4.70
2018-01-10T23:40:53.408Z,4.70
2018-01-10T23:43:21.956Z,4.80
2018-01-10T23:45:49.688Z,4.80
2018-01-10T23:48:17.415Z,4.80
2018-01-10T23:50:45.971Z,4.70
2018-01-10T23:53:13.694Z,4.70
2018-01-10T23:55:41.425Z,4.80
2018-01-10T23:58:09.970Z,4.70
